createdAt,value
2019-03-23T00:00:53.887Z,74.90
2019-03-23T00:03:20.235Z,75.00
2019-03-23T00:05:46.419Z,75.10
2019-03-23T00:08:12.974Z,75.60
2019-03-23T00:10:39.442Z,75.90
2019-03-23T00:13:05.603Z,75.60
2019-03-23T00:15:31.810Z,76.10
2019-03-23T00:17:57.993Z,76.40
2019-03-23T00:20:24.153Z,76.50
2019-03-23T00:22:50.319Z,77.00
2019-03-23T00:25:16.512Z,77.20
2019-03-23T00:27:42.680Z,77.40
2019-03-23T00:30:11.419Z,77.50
2019-03-23T00:32:37.574Z,77.60
2019-03-23T00:35:05.145Z,78.10
2019-03-23T00:37:31.415Z,78.30
2019-03-23T00:39:57.561Z,78.40
2019-03-23T00:42:23.999Z,79.40
2019-03-23T00:44:50.212Z,80.90
2019-03-23T00:47:16.414Z,82.80
2019-03-23T00:49:42.825Z,83.60
2019-03-23T00:52:09.034Z,84.50
2019-03-23T00:54:35.229Z,84.60
2019-03-23T00:57:01.376Z,85.40
2019-03-23T00:59:27.571Z,86.70
2019-03-23T01:01:53.708Z,86.30
2019-03-23T01:04:19.883Z,85.90
2019-03-23T01:06:52.045Z,87.10
2019-03-23T01:09:14.077Z,88.50
2019-03-23T01:11:40.214Z,90.20
2019-03-23T01:14:06.611Z,91.00
2019-03-23T01:16:35.933Z,91.50
2019-03-23T01:19:02.075Z,91.90
2019-03-23T01:21:28.215Z,92.10
2019-03-23T01:23:54.342Z,92.20
2019-03-23T01:26:20.488Z,92.00
2019-03-23T01:28:46.639Z,92.60
2019-03-23T01:31:12.773Z,93.10
2019-03-23T01:33:38.922Z,93.40
2019-03-23T01:36:05.095Z,93.40
2019-03-23T01:38:31.256Z,93.40
2019-03-23T01:40:57.399Z,93.30
2019-03-23T01:43:23.542Z,91.80
2019-03-23T01:45:49.678Z,91.80
2019-03-23T01:48:16.084Z,92.50
2019-03-23T01:50:42.210Z,93.20
2019-03-23T01:53:08.748Z,93.40
2019-03-23T01:55:34.878Z,93.70
2019-03-23T01:58:01.034Z,93.70
2019-03-23T02:00:27.182Z,93.50
2019-03-23T02:02:53.317Z,93.40
2019-03-23T02:05:19.449Z,93.30
2019-03-23T02:07:45.613Z,93.70
2019-03-23T02:10:12.059Z,93.50
2019-03-23T02:12:38.194Z,93.90
2019-03-23T02:15:09.169Z,94.10
2019-03-23T02:17:35.294Z,93.50
2019-03-23T02:20:03.590Z,93.70
2019-03-23T02:22:29.715Z,94.20
2019-03-23T02:24:55.866Z,94.30
2019-03-23T02:27:22.267Z,94.30
2019-03-23T02:29:48.425Z,94.20
2019-03-23T02:32:14.823Z,94.50
2019-03-23T02:34:41.070Z,94.20
2019-03-23T02:37:07.196Z,94.20
2019-03-23T02:39:33.358Z,93.60
2019-03-23T02:41:59.495Z,93.70
2019-03-23T02:44:25.693Z,93.30
2019-03-23T02:46:51.886Z,92.90
2019-03-23T02:49:18.358Z,93.40
2019-03-23T02:51:44.757Z,93.00
2019-03-23T02:54:10.918Z,93.20
2019-03-23T02:56:37.062Z,93.50
2019-03-23T02:59:03.645Z,93.50
2019-03-23T03:01:29.794Z,94.20
2019-03-23T03:03:55.931Z,94.10
2019-03-23T03:06:22.086Z,93.30
2019-03-23T03:08:48.211Z,93.30
2019-03-23T03:11:14.375Z,94.10
2019-03-23T03:13:40.516Z,93.80
2019-03-23T03:16:07.058Z,93.70
2019-03-23T03:18:33.249Z,93.50
2019-03-23T03:20:59.856Z,93.60
2019-03-23T03:23:26.188Z,93.60
2019-03-23T03:25:52.324Z,93.60
2019-03-23T03:28:18.459Z,93.00
2019-03-23T03:30:44.605Z,93.30
2019-03-23T03:33:10.757Z,93.20
2019-03-23T03:35:36.907Z,93.30
2019-03-23T03:38:03.036Z,93.10
2019-03-23T03:40:29.191Z,92.10
2019-03-23T03:42:55.336Z,92.90
2019-03-23T03:45:26.130Z,92.90
2019-03-23T03:47:52.274Z,92.70
2019-03-23T03:50:18.439Z,93.00
2019-03-23T03:52:45.356Z,92.90
2019-03-23T03:55:11.715Z,92.60
2019-03-23T03:57:37.864Z,93.20
2019-03-23T04:00:05.718Z,92.80
2019-03-23T04:02:31.900Z,92.70
2019-03-23T04:04:58.040Z,92.50
2019-03-23T04:07:24.185Z,92.60
2019-03-23T04:09:50.401Z,92.50
2019-03-23T04:12:16.549Z,92.70
2019-03-23T04:14:42.783Z,92.20
2019-03-23T04:17:08.951Z,92.40
2019-03-23T04:19:35.138Z,92.30
2019-03-23T04:22:01.475Z,92.50
2019-03-23T04:24:28.638Z,92.00
2019-03-23T04:26:54.856Z,92.40
2019-03-23T04:29:21.123Z,92.30
2019-03-23T04:31:47.272Z,92.30
2019-03-23T04:34:13.443Z,92.40
2019-03-23T04:36:39.593Z,92.30
2019-03-23T04:39:05.741Z,92.00
2019-03-23T04:41:31.896Z,91.80
2019-03-23T04:43:58.027Z,91.70
2019-03-23T04:46:24.176Z,91.40
2019-03-23T04:48:50.591Z,91.60
2019-03-23T04:51:16.736Z,91.70
2019-03-23T04:53:43.144Z,91.60
2019-03-23T04:56:09.574Z,91.40
2019-03-23T04:58:35.710Z,91.60
2019-03-23T05:01:04.296Z,91.60
2019-03-23T05:03:29.899Z,91.00
2019-03-23T05:05:56.047Z,90.70
2019-03-23T05:08:32.574Z,91.40
2019-03-23T05:10:50.238Z,91.40
2019-03-23T05:13:16.379Z,91.70
2019-03-23T05:15:42.604Z,91.90
2019-03-23T05:18:08.778Z,91.80
2019-03-23T05:20:35.018Z,91.80
2019-03-23T05:23:01.484Z,91.90
2019-03-23T05:25:28.574Z,91.90
2019-03-23T05:27:55.730Z,91.90
2019-03-23T05:30:21.877Z,91.60
2019-03-23T05:32:48.727Z,91.00
2019-03-23T05:35:15.184Z,90.70
2019-03-23T05:37:41.324Z,90.60
2019-03-23T05:40:07.772Z,90.20
2019-03-23T05:42:34.231Z,90.50
2019-03-23T05:45:00.414Z,90.30
2019-03-23T05:47:26.620Z,90.00
2019-03-23T05:49:52.767Z,90.30
2019-03-23T05:52:18.898Z,90.20
2019-03-23T05:54:45.325Z,89.80
2019-03-23T05:57:11.459Z,89.60
2019-03-23T05:59:37.607Z,90.50
2019-03-23T06:02:03.754Z,90.50
2019-03-23T06:04:29.919Z,90.00
2019-03-23T06:06:56.047Z,89.90
2019-03-23T06:09:22.481Z,90.30
2019-03-23T06:11:48.622Z,90.40
2019-03-23T06:14:14.775Z,90.30
2019-03-23T06:16:41.154Z,90.40
2019-03-23T06:19:07.360Z,90.30
2019-03-23T06:21:33.499Z,90.00
2019-03-23T06:23:59.652Z,89.90
2019-03-23T06:26:25.787Z,90.00
2019-03-23T06:28:52.206Z,90.30
2019-03-23T06:31:18.399Z,88.70
2019-03-23T06:33:44.695Z,89.80
2019-03-23T06:36:11.151Z,90.20
2019-03-23T06:38:37.319Z,90.00
2019-03-23T06:41:03.454Z,90.20
2019-03-23T06:43:29.619Z,89.50
2019-03-23T06:45:56.007Z,90.00
2019-03-23T06:48:22.146Z,90.10
2019-03-23T06:50:48.287Z,89.50
2019-03-23T06:53:14.427Z,89.60
2019-03-23T06:55:40.583Z,89.60
2019-03-23T06:58:06.732Z,89.80
2019-03-23T07:00:32.902Z,89.80
2019-03-23T07:02:59.034Z,88.50
2019-03-23T07:05:25.188Z,89.20
2019-03-23T07:07:51.319Z,89.70
2019-03-23T07:10:17.454Z,89.60
2019-03-23T07:12:43.588Z,89.40
2019-03-23T07:15:19.451Z,89.60
2019-03-23T07:17:38.408Z,89.40
2019-03-23T07:20:07.398Z,89.40
2019-03-23T07:22:33.644Z,89.30
2019-03-23T07:25:00.068Z,89.50
2019-03-23T07:27:26.203Z,88.90
2019-03-23T07:29:52.627Z,88.70
2019-03-23T07:32:18.774Z,87.50
2019-03-23T07:34:44.919Z,89.00
2019-03-23T07:37:11.074Z,88.00
2019-03-23T07:39:37.219Z,87.70
2019-03-23T07:42:03.368Z,88.00
2019-03-23T07:44:29.523Z,88.00
2019-03-23T07:46:55.664Z,87.90
2019-03-23T07:49:21.806Z,87.70
2019-03-23T07:51:47.950Z,87.40
2019-03-23T07:54:14.095Z,88.20
2019-03-23T07:56:40.261Z,88.20
2019-03-23T07:59:06.437Z,87.90
2019-03-23T08:01:32.654Z,87.90
2019-03-23T08:03:58.791Z,87.60
2019-03-23T08:06:24.935Z,87.40
2019-03-23T08:08:51.360Z,87.10
2019-03-23T08:11:17.498Z,87.60
2019-03-23T08:13:43.625Z,87.90
2019-03-23T08:16:09.776Z,87.90
2019-03-23T08:18:35.938Z,87.50
2019-03-23T08:21:02.095Z,88.00
2019-03-23T08:23:28.236Z,87.60
2019-03-23T08:25:54.653Z,87.50
2019-03-23T08:28:20.803Z,87.20
2019-03-23T08:30:46.932Z,87.10
2019-03-23T08:33:13.303Z,87.00
2019-03-23T08:35:39.449Z,87.10
2019-03-23T08:38:05.915Z,86.50
2019-03-23T08:40:33.052Z,86.80
2019-03-23T08:42:59.194Z,87.30
2019-03-23T08:45:25.333Z,86.80
2019-03-23T08:47:51.482Z,86.40
2019-03-23T08:50:17.627Z,86.20
2019-03-23T08:52:43.775Z,85.60
2019-03-23T08:55:09.912Z,85.20
2019-03-23T08:57:36.061Z,85.10
2019-03-23T09:00:04.407Z,85.10
2019-03-23T09:02:31.079Z,85.00
2019-03-23T09:04:57.208Z,83.70
2019-03-23T09:07:23.644Z,83.50
2019-03-23T09:09:58.868Z,83.50
2019-03-23T09:12:17.830Z,82.70
2019-03-23T09:14:43.967Z,82.70
2019-03-23T09:17:10.130Z,82.50
2019-03-23T09:19:36.599Z,82.40
2019-03-23T09:22:02.946Z,82.50
2019-03-23T09:24:29.080Z,82.20
2019-03-23T09:26:55.235Z,81.00
2019-03-23T09:29:21.377Z,80.10
2019-03-23T09:31:47.563Z,81.20
2019-03-23T09:34:13.702Z,80.80
2019-03-23T09:36:41.369Z,80.40
2019-03-23T09:39:07.691Z,80.50
2019-03-23T09:41:33.823Z,79.90
2019-03-23T09:43:59.966Z,79.20
2019-03-23T09:46:26.135Z,79.10
2019-03-23T09:48:52.363Z,80.00
2019-03-23T09:51:18.519Z,81.30
2019-03-23T09:53:44.663Z,80.20
2019-03-23T09:56:10.807Z,79.50
2019-03-23T09:58:36.958Z,79.50
2019-03-23T10:01:03.295Z,78.90
2019-03-23T10:03:29.468Z,80.50
2019-03-23T10:05:55.602Z,81.00
2019-03-23T10:08:21.739Z,79.20
2019-03-23T10:10:47.879Z,79.60
2019-03-23T10:13:14.267Z,78.70
2019-03-23T10:15:40.401Z,78.00
2019-03-23T10:18:06.547Z,77.90
2019-03-23T10:20:32.697Z,78.50
2019-03-23T10:22:58.931Z,78.00
2019-03-23T10:25:25.379Z,77.00
2019-03-23T10:27:51.539Z,76.70
2019-03-23T10:30:17.666Z,77.30
2019-03-23T10:32:43.824Z,75.10
2019-03-23T10:35:10.519Z,73.80
2019-03-23T10:37:36.999Z,73.80
2019-03-23T10:40:07.425Z,74.00
2019-03-23T10:42:33.596Z,73.90
2019-03-23T10:44:59.747Z,73.20
2019-03-23T10:47:25.941Z,72.70
2019-03-23T10:49:52.475Z,73.40
2019-03-23T10:52:18.623Z,73.80
2019-03-23T10:54:44.774Z,73.70
2019-03-23T10:57:10.913Z,74.00
2019-03-23T10:59:37.071Z,75.10
2019-03-23T11:02:03.534Z,75.30
2019-03-23T11:04:29.954Z,75.50
2019-03-23T11:06:56.085Z,75.00
2019-03-23T11:09:22.232Z,75.90
2019-03-23T11:11:48.374Z,77.20
2019-03-23T11:14:14.526Z,77.00
2019-03-23T11:16:40.659Z,77.10
2019-03-23T11:19:13.332Z,76.60
2019-03-23T11:21:34.875Z,77.70
2019-03-23T11:24:01.021Z,77.70
2019-03-23T11:26:28.143Z,77.40
2019-03-23T11:28:54.732Z,78.30
2019-03-23T11:31:20.864Z,77.90
2019-03-23T11:33:47.007Z,76.80
2019-03-23T11:36:13.145Z,76.60
2019-03-23T11:38:39.624Z,76.50
2019-03-23T11:41:05.787Z,77.40
2019-03-23T11:43:31.913Z,77.40
2019-03-23T11:45:58.866Z,77.20
2019-03-23T11:48:25.003Z,75.80
2019-03-23T11:50:51.483Z,75.60
2019-03-23T11:53:17.622Z,77.10
2019-03-23T11:55:43.766Z,77.20
2019-03-23T11:58:09.911Z,76.70
2019-03-23T12:00:36.062Z,76.80
2019-03-23T12:03:02.199Z,76.30
2019-03-23T12:05:28.630Z,76.10
2019-03-23T12:07:54.783Z,76.40
2019-03-23T12:10:22.238Z,77.10
2019-03-23T12:12:48.376Z,76.40
2019-03-23T12:15:14.506Z,76.00
2019-03-23T12:17:40.656Z,75.60
2019-03-23T12:20:07.508Z,76.70
2019-03-23T12:22:33.651Z,75.80
2019-03-23T12:24:59.797Z,75.80
2019-03-23T12:27:25.953Z,75.60
2019-03-23T12:29:52.086Z,76.50
2019-03-23T12:32:18.475Z,76.30
2019-03-23T12:34:44.629Z,77.30
2019-03-23T12:37:10.779Z,77.80
2019-03-23T12:39:36.924Z,76.60
2019-03-23T12:42:03.074Z,76.00
2019-03-23T12:44:29.215Z,75.90
2019-03-23T12:46:55.369Z,75.70
2019-03-23T12:49:21.508Z,75.70
2019-03-23T12:51:47.692Z,75.40
2019-03-23T12:54:14.138Z,75.70
2019-03-23T12:56:40.306Z,76.20
2019-03-23T12:59:06.456Z,77.20
2019-03-23T13:01:32.607Z,76.70
2019-03-23T13:03:58.754Z,76.40
2019-03-23T13:06:25.175Z,76.70
2019-03-23T13:08:51.323Z,76.60
2019-03-23T13:11:23.255Z,77.10
2019-03-23T13:13:45.506Z,76.10
2019-03-23T13:16:11.658Z,76.30
2019-03-23T13:18:37.803Z,77.80
2019-03-23T13:21:04.952Z,77.00
2019-03-23T13:23:31.102Z,77.70
2019-03-23T13:25:57.238Z,77.40
2019-03-23T13:28:23.389Z,77.70
2019-03-23T13:30:49.815Z,78.40
2019-03-23T13:33:16.220Z,78.30
2019-03-23T13:35:42.348Z,78.20
2019-03-23T13:38:08.494Z,78.20
2019-03-23T13:40:34.639Z,77.90
2019-03-23T13:43:00.782Z,78.10
2019-03-23T13:45:26.923Z,78.50
2019-03-23T13:47:54.840Z,78.80
2019-03-23T13:50:26.010Z,79.20
2019-03-23T13:52:52.205Z,79.50
2019-03-23T13:55:24.003Z,78.30
2019-03-23T13:57:50.159Z,78.90
2019-03-23T14:00:16.298Z,78.40
2019-03-23T14:02:42.453Z,78.00
2019-03-23T14:05:16.074Z,78.70
2019-03-23T14:07:36.760Z,78.50
2019-03-23T14:10:04.398Z,79.00
2019-03-23T14:12:30.552Z,78.90
2019-03-23T14:14:56.687Z,78.20
2019-03-23T14:17:22.851Z,78.00
2019-03-23T14:19:49.331Z,78.20
2019-03-23T14:22:15.471Z,78.50
2019-03-23T14:24:41.615Z,78.40
2019-03-23T14:27:07.759Z,78.50
2019-03-23T14:29:33.896Z,78.20
2019-03-23T14:32:00.035Z,78.80
2019-03-23T14:34:26.211Z,78.90
2019-03-23T14:36:52.352Z,78.80
2019-03-23T14:39:18.502Z,79.40
2019-03-23T14:41:44.641Z,79.90
2019-03-23T14:44:10.803Z,80.30
2019-03-23T14:46:36.950Z,80.20
2019-03-23T14:49:03.094Z,80.30
2019-03-23T14:51:29.235Z,80.40
2019-03-23T14:53:55.499Z,80.50
2019-03-23T14:56:21.954Z,79.80
2019-03-23T14:58:48.107Z,81.40
2019-03-23T15:01:14.244Z,79.80
2019-03-23T15:03:40.402Z,80.10
2019-03-23T15:06:06.535Z,79.90
2019-03-23T15:08:32.776Z,79.90
2019-03-23T15:10:58.926Z,80.10
2019-03-23T15:13:25.075Z,80.80
2019-03-23T15:15:51.220Z,81.10
2019-03-23T15:18:17.356Z,81.30
2019-03-23T15:20:44.612Z,81.50
2019-03-23T15:23:10.769Z,81.80
2019-03-23T15:25:36.922Z,80.70
2019-03-23T15:28:03.071Z,81.00
2019-03-23T15:30:29.551Z,80.90
2019-03-23T15:32:55.689Z,81.50
2019-03-23T15:35:21.834Z,81.90
2019-03-23T15:37:47.972Z,81.40
2019-03-23T15:40:14.124Z,81.90
2019-03-23T15:42:40.263Z,81.80
2019-03-23T15:45:07.442Z,82.30
2019-03-23T15:47:33.567Z,82.70
2019-03-23T15:49:59.724Z,83.00
2019-03-23T15:52:25.895Z,83.30
2019-03-23T15:54:52.052Z,83.20
2019-03-23T15:57:18.189Z,82.90
2019-03-23T15:59:44.340Z,83.30
2019-03-23T16:02:10.484Z,83.20
2019-03-23T16:04:36.879Z,83.80
2019-03-23T16:07:03.017Z,83.80
2019-03-23T16:09:29.171Z,83.40
2019-03-23T16:11:55.298Z,83.50
2019-03-23T16:14:21.769Z,83.30
2019-03-23T16:16:47.939Z,83.30
2019-03-23T16:19:14.327Z,82.60
2019-03-23T16:21:40.833Z,82.10
2019-03-23T16:24:07.221Z,82.40
2019-03-23T16:26:33.355Z,83.10
2019-03-23T16:28:59.499Z,83.40
2019-03-23T16:31:25.643Z,83.00
2019-03-23T16:33:51.788Z,82.60
2019-03-23T16:36:17.931Z,82.60
2019-03-23T16:38:44.356Z,83.60
2019-03-23T16:41:10.510Z,83.90
2019-03-23T16:43:36.654Z,84.20
2019-03-23T16:46:02.803Z,83.90
2019-03-23T16:48:28.958Z,84.10
2019-03-23T16:50:55.097Z,84.30
2019-03-23T16:53:21.248Z,84.40
2019-03-23T16:55:47.391Z,83.60
2019-03-23T16:58:16.272Z,82.60
2019-03-23T17:00:41.584Z,83.50
2019-03-23T17:03:07.743Z,82.00
2019-03-23T17:05:33.862Z,82.60
2019-03-23T17:08:00.006Z,83.50
2019-03-23T17:10:26.155Z,84.00
2019-03-23T17:12:55.523Z,83.10
2019-03-23T17:15:20.621Z,84.40
2019-03-23T17:17:46.765Z,84.80
2019-03-23T17:20:13.003Z,85.40
2019-03-23T17:22:39.146Z,85.30
2019-03-23T17:25:05.491Z,86.60
2019-03-23T17:27:32.642Z,86.80
2019-03-23T17:29:58.796Z,87.30
2019-03-23T17:32:24.934Z,89.10
2019-03-23T17:34:51.095Z,89.20
2019-03-23T17:37:17.247Z,90.60
2019-03-23T17:39:43.482Z,90.30
2019-03-23T17:42:09.629Z,91.10
2019-03-23T17:44:35.764Z,91.00
2019-03-23T17:47:02.020Z,91.00
2019-03-23T17:49:28.258Z,91.20
2019-03-23T17:51:55.528Z,91.30
2019-03-23T17:54:22.051Z,91.10
2019-03-23T17:56:48.205Z,91.30
2019-03-23T17:59:14.346Z,91.30
2019-03-23T18:01:40.524Z,91.50
2019-03-23T18:04:06.685Z,91.70
2019-03-23T18:06:32.918Z,92.50
2019-03-23T18:08:59.057Z,92.30
2019-03-23T18:11:26.245Z,92.50
2019-03-23T18:13:52.370Z,92.80
2019-03-23T18:16:18.520Z,92.90
2019-03-23T18:18:44.659Z,93.20
2019-03-23T18:21:10.812Z,93.30
2019-03-23T18:23:36.996Z,93.50
2019-03-23T18:26:03.651Z,93.50
2019-03-23T18:28:29.785Z,93.30
2019-03-23T18:30:56.199Z,93.20
2019-03-23T18:33:22.336Z,93.10
2019-03-23T18:35:48.574Z,92.70
2019-03-23T18:38:14.717Z,92.40
2019-03-23T18:40:40.972Z,92.20
2019-03-23T18:43:07.319Z,92.20
2019-03-23T18:45:33.577Z,92.00
2019-03-23T18:47:59.726Z,92.10
2019-03-23T18:50:25.865Z,91.90
2019-03-23T18:52:52.027Z,91.70
2019-03-23T18:55:18.170Z,91.70
2019-03-23T18:57:44.322Z,91.70
2019-03-23T19:00:12.759Z,91.90
2019-03-23T19:02:38.913Z,91.90
2019-03-23T19:05:05.355Z,91.90
2019-03-23T19:07:31.779Z,92.00
2019-03-23T19:09:57.907Z,91.90
2019-03-23T19:12:24.054Z,92.00
2019-03-23T19:14:50.202Z,92.10
2019-03-23T19:17:16.359Z,92.00
2019-03-23T19:19:42.506Z,92.20
2019-03-23T19:22:08.646Z,92.20
2019-03-23T19:24:35.068Z,92.50
2019-03-23T19:27:01.507Z,92.60
2019-03-23T19:29:27.772Z,92.60
2019-03-23T19:31:53.998Z,92.90
2019-03-23T19:34:20.147Z,92.50
2019-03-23T19:36:46.307Z,92.60
2019-03-23T19:39:13.552Z,92.50
2019-03-23T19:41:40.002Z,92.40
2019-03-23T19:44:06.139Z,92.60
2019-03-23T19:46:32.343Z,92.60
2019-03-23T19:48:58.507Z,92.60
2019-03-23T19:51:25.653Z,92.60
2019-03-23T19:53:51.802Z,92.80
2019-03-23T19:56:17.969Z,92.60
2019-03-23T19:58:44.208Z,92.70
2019-03-23T20:01:10.345Z,92.50
2019-03-23T20:03:36.489Z,93.10
2019-03-23T20:06:02.984Z,93.50
2019-03-23T20:08:29.127Z,92.70
2019-03-23T20:10:55.265Z,92.30
2019-03-23T20:13:21.425Z,92.60
2019-03-23T20:15:47.819Z,93.50
2019-03-23T20:18:13.959Z,93.10
2019-03-23T20:20:40.118Z,92.60
2019-03-23T20:23:06.603Z,92.30
2019-03-23T20:25:32.746Z,92.10
2019-03-23T20:27:58.896Z,92.10
2019-03-23T20:30:25.100Z,92.10
2019-03-23T20:32:51.245Z,92.00
2019-03-23T20:35:17.478Z,91.90
2019-03-23T20:37:43.698Z,91.70
2019-03-23T20:40:10.544Z,91.70
2019-03-23T20:42:36.689Z,91.60
2019-03-23T20:45:04.931Z,91.50
2019-03-23T20:47:31.479Z,91.70
2019-03-23T20:49:57.619Z,91.60
2019-03-23T20:52:23.760Z,91.40
2019-03-23T20:54:49.904Z,91.60
2019-03-23T20:57:23.983Z,91.30
2019-03-23T20:59:44.431Z,91.30
2019-03-23T21:02:10.571Z,91.30
2019-03-23T21:04:36.731Z,91.10
2019-03-23T21:07:02.879Z,91.10
2019-03-23T21:09:29.020Z,91.10
2019-03-23T21:11:55.170Z,91.30
2019-03-23T21:14:21.329Z,91.20
2019-03-23T21:16:47.831Z,91.30
2019-03-23T21:19:15.082Z,91.10
2019-03-23T21:21:41.243Z,91.20
2019-03-23T21:24:07.397Z,90.70
2019-03-23T21:26:33.539Z,90.70
2019-03-23T21:28:59.702Z,90.70
2019-03-23T21:31:26.123Z,90.50
2019-03-23T21:33:52.575Z,90.50
2019-03-23T21:36:18.941Z,90.50
2019-03-23T21:38:45.094Z,90.40
2019-03-23T21:41:11.230Z,90.50
2019-03-23T21:43:37.374Z,90.30
2019-03-23T21:46:03.520Z,90.20
2019-03-23T21:48:29.676Z,90.20
2019-03-23T21:50:55.810Z,90.00
2019-03-23T21:53:21.969Z,89.70
2019-03-23T21:55:48.091Z,89.70
2019-03-23T21:58:14.296Z,89.50
2019-03-23T22:00:40.494Z,89.70
2019-03-23T22:03:06.893Z,89.60
2019-03-23T22:05:33.031Z,89.20
2019-03-23T22:07:59.179Z,89.30
2019-03-23T22:10:25.335Z,89.20
2019-03-23T22:12:51.475Z,89.10
2019-03-23T22:15:17.830Z,89.30
2019-03-23T22:17:43.973Z,89.20
2019-03-23T22:20:10.717Z,89.30
2019-03-23T22:22:37.119Z,89.10
2019-03-23T22:25:05.174Z,88.80
2019-03-23T22:27:31.644Z,89.40
2019-03-23T22:29:57.792Z,89.20
2019-03-23T22:32:23.936Z,89.10
2019-03-23T22:34:50.094Z,88.80
2019-03-23T22:37:16.235Z,88.90
2019-03-23T22:39:42.380Z,88.70
2019-03-23T22:42:08.511Z,88.30
2019-03-23T22:44:34.922Z,88.30
2019-03-23T22:47:01.072Z,88.10
2019-03-23T22:49:27.228Z,88.50
2019-03-23T22:51:53.369Z,89.00
2019-03-23T22:54:19.835Z,89.30
2019-03-23T22:56:45.970Z,89.60
2019-03-23T22:59:12.134Z,90.00
2019-03-23T23:01:38.270Z,90.20
2019-03-23T23:04:04.423Z,90.30
2019-03-23T23:06:30.878Z,90.50
2019-03-23T23:08:57.026Z,90.60
2019-03-23T23:11:23.171Z,90.70
2019-03-23T23:13:49.427Z,90.80
2019-03-23T23:16:15.573Z,90.90
2019-03-23T23:18:41.917Z,90.90
2019-03-23T23:21:08.058Z,91.00
2019-03-23T23:23:34.210Z,91.10
2019-03-23T23:26:00.347Z,91.10
2019-03-23T23:28:26.791Z,91.20
2019-03-23T23:30:52.934Z,91.20
2019-03-23T23:33:19.278Z,91.20
2019-03-23T23:35:45.417Z,91.20
2019-03-23T23:38:11.863Z,91.30
2019-03-23T23:40:38.003Z,91.30
2019-03-23T23:43:04.143Z,91.20
2019-03-23T23:45:30.594Z,91.20
2019-03-23T23:47:56.730Z,91.30
2019-03-23T23:50:22.876Z,91.30
2019-03-23T23:52:49.020Z,91.40
2019-03-23T23:55:15.159Z,91.40
2019-03-23T23:57:41.580Z,91.40
